createdAt,value
2019-03-09T00:00:07.860Z,7.20
2019-03-09T00:02:37.028Z,7.20
2019-03-09T00:05:06.815Z,7.20
2019-03-09T00:07:36.856Z,7.10
2019-03-09T00:10:06.706Z,7.10
2019-03-09T00:12:36.521Z,7.00
2019-03-09T00:15:06.793Z,7.00
2019-03-09T00:17:36.619Z,7.00
2019-03-09T00:20:06.043Z,6.90
2019-03-09T00:22:35.177Z,6.90
2019-03-09T00:25:27.493Z,6.80
2019-03-09T00:28:03.609Z,6.80
2019-03-09T00:30:54.689Z,6.80
2019-03-09T00:33:24.088Z,6.70
2019-03-09T00:35:54.034Z,6.70
2019-03-09T00:38:23.710Z,6.70
2019-03-09T00:40:53.129Z,6.70
2019-03-09T00:43:23.236Z,6.70
2019-03-09T00:45:52.696Z,6.60
2019-03-09T00:48:22.562Z,6.60
2019-03-09T00:50:51.973Z,6.50
2019-03-09T00:53:21.603Z,6.50
2019-03-09T00:55:50.739Z,6.40
2019-03-09T00:58:23.059Z,6.30
2019-03-09T01:00:52.170Z,6.30
2019-03-09T01:03:21.579Z,6.30
2019-03-09T01:05:50.931Z,6.30
2019-03-09T01:08:21.397Z,6.30
2019-03-09T01:10:51.304Z,6.30
2019-03-09T01:13:20.632Z,6.20
2019-03-09T01:15:49.999Z,6.20
2019-03-09T01:18:19.837Z,6.20
2019-03-09T01:20:49.223Z,6.30
2019-03-09T01:23:19.258Z,6.30
2019-03-09T01:25:49.028Z,6.40
2019-03-09T01:28:19.113Z,6.30
2019-03-09T01:30:48.913Z,6.40
2019-03-09T01:33:18.316Z,6.40
2019-03-09T01:35:48.377Z,6.40
2019-03-09T01:38:18.057Z,6.50
2019-03-09T01:40:47.625Z,6.50
2019-03-09T01:43:17.584Z,6.50
2019-03-09T01:45:47.072Z,6.40
2019-03-09T01:48:17.409Z,6.50
2019-03-09T01:50:46.843Z,6.50
2019-03-09T01:53:16.699Z,6.50
2019-03-09T01:55:46.650Z,6.50
2019-03-09T01:58:16.143Z,6.50
2019-03-09T02:00:45.625Z,6.60
2019-03-09T02:03:15.456Z,6.50
2019-03-09T02:05:44.899Z,6.50
2019-03-09T02:08:13.987Z,6.50
2019-03-09T02:10:44.047Z,6.60
2019-03-09T02:13:14.032Z,6.50
2019-03-09T02:15:43.750Z,6.50
2019-03-09T02:18:13.187Z,6.50
2019-03-09T02:20:42.347Z,6.50
2019-03-09T02:23:12.147Z,6.40
2019-03-09T02:25:41.571Z,6.40
2019-03-09T02:28:10.993Z,6.40
2019-03-09T02:30:40.705Z,6.40
2019-03-09T02:33:10.728Z,6.40
2019-03-09T02:35:40.336Z,6.30
2019-03-09T02:38:40.561Z,6.20
2019-03-09T02:41:10.383Z,6.20
2019-03-09T02:43:40.148Z,6.10
2019-03-09T02:46:09.589Z,6.10
2019-03-09T02:48:39.084Z,6.00
2019-03-09T02:51:08.250Z,6.00
2019-03-09T02:53:37.725Z,6.00
2019-03-09T02:56:07.510Z,6.00
2019-03-09T02:58:36.970Z,5.90
2019-03-09T03:01:34.543Z,5.90
2019-03-09T03:04:04.280Z,5.90
2019-03-09T03:06:33.350Z,5.80
2019-03-09T03:09:04.739Z,5.80
2019-03-09T03:11:34.255Z,5.80
2019-03-09T03:14:03.730Z,5.80
2019-03-09T03:16:33.572Z,5.80
2019-03-09T03:19:03.396Z,5.80
2019-03-09T03:21:32.717Z,5.80
2019-03-09T03:24:02.347Z,5.80
2019-03-09T03:26:32.001Z,5.70
2019-03-09T03:29:01.175Z,5.70
2019-03-09T03:31:30.627Z,5.60
2019-03-09T03:34:00.447Z,5.60
2019-03-09T03:36:29.843Z,5.60
2019-03-09T03:38:59.403Z,5.60
2019-03-09T03:41:28.844Z,5.60
2019-03-09T03:43:58.100Z,5.60
2019-03-09T03:46:27.950Z,5.60
2019-03-09T03:48:57.679Z,5.60
2019-03-09T03:51:27.695Z,5.50
2019-03-09T03:53:56.778Z,5.50
2019-03-09T03:56:25.855Z,5.50
2019-03-09T03:58:55.820Z,5.60
2019-03-09T04:01:25.342Z,5.50
2019-03-09T04:03:54.863Z,5.60
2019-03-09T04:06:24.553Z,5.60
2019-03-09T04:08:54.324Z,5.60
2019-03-09T04:11:24.794Z,5.50
2019-03-09T04:13:53.940Z,5.50
2019-03-09T04:16:23.741Z,5.50
2019-03-09T04:18:53.100Z,5.50
2019-03-09T04:21:23.776Z,5.50
2019-03-09T04:23:53.534Z,5.50
2019-03-09T04:26:23.390Z,5.50
2019-03-09T04:28:52.798Z,5.40
2019-03-09T04:31:21.880Z,5.40
2019-03-09T04:33:51.721Z,5.40
2019-03-09T04:36:20.786Z,5.40
2019-03-09T04:38:50.355Z,5.40
2019-03-09T04:41:19.858Z,5.40
2019-03-09T04:43:49.649Z,5.30
2019-03-09T04:46:19.359Z,5.30
2019-03-09T04:48:48.790Z,5.30
2019-03-09T04:51:18.122Z,5.30
2019-03-09T04:53:47.555Z,5.30
2019-03-09T04:56:17.825Z,5.30
2019-03-09T04:58:47.519Z,5.30
2019-03-09T05:01:17.196Z,5.20
2019-03-09T05:03:49.057Z,5.20
2019-03-09T05:06:19.059Z,5.20
2019-03-09T05:09:24.835Z,5.20
2019-03-09T05:11:54.254Z,5.10
2019-03-09T05:14:25.375Z,5.20
2019-03-09T05:16:54.768Z,5.20
2019-03-09T05:19:24.556Z,5.20
2019-03-09T05:21:54.085Z,5.20
2019-03-09T05:24:23.063Z,5.20
2019-03-09T05:26:52.516Z,5.20
2019-03-09T05:29:22.234Z,5.20
2019-03-09T05:31:51.644Z,5.20
2019-03-09T05:34:21.514Z,5.30
2019-03-09T05:36:51.356Z,5.30
2019-03-09T05:39:20.793Z,5.30
2019-03-09T05:41:49.960Z,5.30
2019-03-09T05:44:19.386Z,5.20
2019-03-09T05:46:49.945Z,5.30
2019-03-09T05:49:20.195Z,5.30
2019-03-09T05:52:25.299Z,5.30
2019-03-09T05:54:54.370Z,5.20
2019-03-09T05:57:23.726Z,5.30
2019-03-09T05:59:53.194Z,5.30
2019-03-09T06:02:22.616Z,5.30
2019-03-09T06:04:52.071Z,5.40
2019-03-09T06:07:21.411Z,5.40
2019-03-09T06:09:50.514Z,5.50
2019-03-09T06:12:19.837Z,5.60
2019-03-09T06:14:49.601Z,5.70
2019-03-09T06:17:18.947Z,5.80
2019-03-09T06:19:48.463Z,5.90
2019-03-09T06:22:18.573Z,6.10
2019-03-09T06:24:47.620Z,6.30
2019-03-09T06:27:17.737Z,6.40
2019-03-09T06:29:47.244Z,6.40
2019-03-09T06:33:03.129Z,6.40
2019-03-09T06:35:32.696Z,6.40
2019-03-09T06:38:22.498Z,6.40
2019-03-09T06:40:52.353Z,6.40
2019-03-09T06:43:21.728Z,6.40
2019-03-09T06:45:50.874Z,6.40
2019-03-09T06:48:21.023Z,6.40
2019-03-09T06:50:50.391Z,6.40
2019-03-09T06:53:20.049Z,6.40
2019-03-09T06:55:49.845Z,6.50
2019-03-09T06:58:18.945Z,6.50
2019-03-09T07:00:49.111Z,6.50
2019-03-09T07:03:19.291Z,6.60
2019-03-09T07:05:49.218Z,6.60
2019-03-09T07:08:19.015Z,6.60
2019-03-09T07:10:48.898Z,6.70
2019-03-09T07:13:18.829Z,6.70
2019-03-09T07:15:49.146Z,6.80
2019-03-09T07:18:20.400Z,6.80
2019-03-09T07:20:50.329Z,6.80
2019-03-09T07:23:20.277Z,6.90
2019-03-09T07:25:49.806Z,6.90
2019-03-09T07:28:19.121Z,6.90
2019-03-09T07:30:49.100Z,7.00
2019-03-09T07:33:19.018Z,7.00
2019-03-09T07:35:48.733Z,7.00
2019-03-09T07:38:18.889Z,7.10
2019-03-09T07:40:48.569Z,7.00
2019-03-09T07:43:18.606Z,7.10
2019-03-09T07:45:48.591Z,7.10
2019-03-09T07:48:18.424Z,7.20
2019-03-09T07:50:47.549Z,7.30
2019-03-09T07:53:17.355Z,7.30
2019-03-09T07:55:47.970Z,7.40
2019-03-09T07:58:17.775Z,7.50
2019-03-09T08:00:46.999Z,7.70
2019-03-09T08:03:16.975Z,7.80
2019-03-09T08:05:47.161Z,7.80
2019-03-09T08:08:17.933Z,8.00
2019-03-09T08:10:47.900Z,8.10
2019-03-09T08:13:17.518Z,8.00
2019-03-09T08:15:47.594Z,8.20
2019-03-09T08:18:17.006Z,8.20
2019-03-09T08:20:47.166Z,8.20
2019-03-09T08:23:17.043Z,8.30
2019-03-09T08:25:47.012Z,8.60
2019-03-09T08:28:16.711Z,8.80
2019-03-09T08:30:46.207Z,8.80
2019-03-09T08:33:16.238Z,8.90
2019-03-09T08:35:45.317Z,8.90
2019-03-09T08:38:14.786Z,9.00
2019-03-09T08:40:44.123Z,9.00
2019-03-09T08:43:13.594Z,9.10
2019-03-09T08:45:43.466Z,9.20
2019-03-09T08:48:12.652Z,9.30
2019-03-09T08:50:41.935Z,9.20
2019-03-09T08:53:12.241Z,9.40
2019-03-09T08:55:41.834Z,9.40
2019-03-09T08:58:11.517Z,9.40
2019-03-09T09:00:40.931Z,9.50
2019-03-09T09:03:10.418Z,9.80
2019-03-09T09:05:39.899Z,9.90
2019-03-09T09:08:09.406Z,10.00
2019-03-09T09:10:38.883Z,9.90
2019-03-09T09:13:08.592Z,10.00
2019-03-09T09:15:38.244Z,10.10
2019-03-09T09:18:08.191Z,10.10
2019-03-09T09:20:38.168Z,10.20
2019-03-09T09:23:08.155Z,10.20
2019-03-09T09:25:37.493Z,10.30
2019-03-09T09:28:07.126Z,10.40
2019-03-09T09:30:36.889Z,10.50
2019-03-09T09:33:06.025Z,10.60
2019-03-09T09:35:35.777Z,10.70
2019-03-09T09:38:05.673Z,10.80
2019-03-09T09:40:35.038Z,10.90
2019-03-09T09:43:05.236Z,10.80
2019-03-09T09:45:34.700Z,10.90
2019-03-09T09:48:04.536Z,10.90
2019-03-09T09:50:33.930Z,11.00
2019-03-09T09:53:04.413Z,10.90
2019-03-09T09:55:36.387Z,10.80
2019-03-09T09:58:06.195Z,10.80
2019-03-09T10:00:35.690Z,10.70
2019-03-09T10:03:05.599Z,10.60
2019-03-09T10:05:35.202Z,10.50
2019-03-09T10:08:05.260Z,10.40
2019-03-09T10:10:34.408Z,10.30
2019-03-09T10:13:03.870Z,10.30
2019-03-09T10:15:33.071Z,10.30
2019-03-09T10:18:02.830Z,10.20
2019-03-09T10:20:31.859Z,10.10
2019-03-09T10:23:04.710Z,10.00
2019-03-09T10:25:32.111Z,10.00
2019-03-09T10:28:01.616Z,9.90
2019-03-09T10:30:31.346Z,9.90
2019-03-09T10:33:00.669Z,9.80
2019-03-09T10:35:30.436Z,9.80
2019-03-09T10:37:59.826Z,9.80
2019-03-09T10:40:28.967Z,9.80
2019-03-09T10:42:58.050Z,9.80
2019-03-09T10:45:27.166Z,9.80
2019-03-09T10:47:57.365Z,9.80
2019-03-09T10:50:27.548Z,9.80
2019-03-09T10:52:57.579Z,9.80
2019-03-09T10:55:27.404Z,9.80
2019-03-09T10:57:56.792Z,9.80
2019-03-09T11:00:28.677Z,9.90
2019-03-09T11:02:58.476Z,9.90
2019-03-09T11:05:27.655Z,9.90
2019-03-09T11:07:57.323Z,9.90
2019-03-09T11:10:26.846Z,9.80
2019-03-09T11:12:55.917Z,9.80
2019-03-09T11:15:26.085Z,9.70
2019-03-09T11:17:55.930Z,9.70
2019-03-09T11:20:26.411Z,9.70
2019-03-09T11:22:55.654Z,9.50
2019-03-09T11:25:25.215Z,9.40
2019-03-09T11:27:54.575Z,9.30
2019-03-09T11:30:25.455Z,9.30
2019-03-09T11:32:55.479Z,9.30
2019-03-09T11:35:25.523Z,9.20
2019-03-09T11:37:54.702Z,9.10
2019-03-09T11:40:24.442Z,9.00
2019-03-09T11:42:54.428Z,8.90
2019-03-09T11:45:24.075Z,8.60
2019-03-09T11:47:53.893Z,8.30
2019-03-09T11:50:23.007Z,8.10
2019-03-09T11:52:52.818Z,8.00
2019-03-09T11:55:22.624Z,7.90
2019-03-09T11:57:52.404Z,7.80
2019-03-09T12:00:25.871Z,7.80
2019-03-09T12:02:55.152Z,7.80
2019-03-09T12:05:25.060Z,7.80
2019-03-09T12:07:54.560Z,7.80
2019-03-09T12:10:24.533Z,7.80
2019-03-09T12:12:53.715Z,7.90
2019-03-09T12:15:23.682Z,7.90
2019-03-09T12:17:52.852Z,7.90
2019-03-09T12:20:24.530Z,8.00
2019-03-09T12:23:01.206Z,8.10
2019-03-09T12:25:25.913Z,8.10
2019-03-09T12:27:55.060Z,8.20
2019-03-09T12:30:24.509Z,8.30
2019-03-09T12:32:53.880Z,8.30
2019-03-09T12:35:23.845Z,8.30
2019-03-09T12:37:53.245Z,8.30
2019-03-09T12:40:22.310Z,8.40
2019-03-09T12:42:51.676Z,8.40
2019-03-09T12:45:21.556Z,8.40
2019-03-09T12:47:51.352Z,8.50
2019-03-09T12:50:20.495Z,8.50
2019-03-09T12:52:50.377Z,8.50
2019-03-09T12:55:19.856Z,8.50
2019-03-09T12:57:49.271Z,8.50
2019-03-09T13:00:18.722Z,8.50
2019-03-09T13:02:47.784Z,8.50
2019-03-09T13:05:17.113Z,8.50
2019-03-09T13:07:46.281Z,8.50
2019-03-09T13:10:15.825Z,8.50
2019-03-09T13:12:45.648Z,8.40
2019-03-09T13:15:15.217Z,8.40
2019-03-09T13:17:44.390Z,8.40
2019-03-09T13:20:13.642Z,8.40
2019-03-09T13:22:43.075Z,8.40
2019-03-09T13:25:12.541Z,8.40
2019-03-09T13:27:41.648Z,8.40
2019-03-09T13:30:13.304Z,8.50
2019-03-09T13:32:43.107Z,8.50
2019-03-09T13:35:12.889Z,8.50
2019-03-09T13:37:43.017Z,8.60
2019-03-09T13:40:12.500Z,8.60
2019-03-09T13:42:42.230Z,8.70
2019-03-09T13:45:12.647Z,8.70
2019-03-09T13:47:42.100Z,8.80
2019-03-09T13:50:11.966Z,8.80
2019-03-09T13:52:42.134Z,8.80
2019-03-09T13:55:11.307Z,8.80
2019-03-09T13:57:41.806Z,8.80
2019-03-09T14:00:12.407Z,8.90
2019-03-09T14:02:42.261Z,9.00
2019-03-09T14:05:11.412Z,9.10
2019-03-09T14:07:41.214Z,9.10
2019-03-09T14:10:11.422Z,9.20
2019-03-09T14:12:41.305Z,9.20
2019-03-09T14:15:12.576Z,9.20
2019-03-09T14:17:42.461Z,9.30
2019-03-09T14:20:12.601Z,9.20
2019-03-09T14:22:42.148Z,9.30
2019-03-09T14:25:11.335Z,9.30
2019-03-09T14:27:43.472Z,9.30
2019-03-09T14:30:14.003Z,9.30
2019-03-09T14:32:43.124Z,9.30
2019-03-09T14:35:17.085Z,9.30
2019-03-09T14:37:47.130Z,9.40
2019-03-09T14:40:17.312Z,9.40
2019-03-09T14:42:47.669Z,9.40
2019-03-09T14:45:18.893Z,9.40
2019-03-09T14:47:50.279Z,9.40
2019-03-09T14:50:20.484Z,9.40
2019-03-09T14:52:49.944Z,9.40
2019-03-09T14:55:19.537Z,9.40
2019-03-09T14:57:49.295Z,9.40
2019-03-09T15:00:20.776Z,9.40
2019-03-09T15:02:50.985Z,9.40
2019-03-09T15:05:20.784Z,9.40
2019-03-09T15:07:51.239Z,9.40
2019-03-09T15:10:20.710Z,9.40
2019-03-09T15:12:50.195Z,9.40
2019-03-09T15:15:19.627Z,9.50
2019-03-09T15:17:49.310Z,9.40
2019-03-09T15:20:18.959Z,9.50
2019-03-09T15:22:48.388Z,9.50
2019-03-09T15:25:18.210Z,9.50
2019-03-09T15:27:47.298Z,9.50
2019-03-09T15:30:17.049Z,9.50
2019-03-09T15:32:46.495Z,9.50
2019-03-09T15:35:16.203Z,9.50
2019-03-09T15:37:48.979Z,9.50
2019-03-09T15:40:18.542Z,9.50
2019-03-09T15:42:47.679Z,9.50
2019-03-09T15:45:17.467Z,9.50
2019-03-09T15:47:47.363Z,9.50
2019-03-09T15:50:16.510Z,9.40
2019-03-09T15:52:45.605Z,9.40
2019-03-09T15:55:15.419Z,9.40
2019-03-09T15:57:45.064Z,9.40
2019-03-09T16:00:18.156Z,9.40
2019-03-09T16:02:47.213Z,9.40
2019-03-09T16:05:16.938Z,9.40
2019-03-09T16:07:46.468Z,9.40
2019-03-09T16:10:16.019Z,9.40
2019-03-09T16:12:45.563Z,9.40
2019-03-09T16:15:15.220Z,9.40
2019-03-09T16:17:44.687Z,9.40
2019-03-09T16:20:15.685Z,9.40
2019-03-09T16:22:45.515Z,9.40
2019-03-09T16:25:15.440Z,9.40
2019-03-09T16:27:45.267Z,9.40
2019-03-09T16:30:16.559Z,9.40
2019-03-09T16:32:45.669Z,9.40
2019-03-09T16:35:15.174Z,9.40
2019-03-09T16:37:44.884Z,9.40
2019-03-09T16:40:14.943Z,9.40
2019-03-09T16:42:44.886Z,9.40
2019-03-09T16:45:14.191Z,9.40
2019-03-09T16:47:43.698Z,9.40
2019-03-09T16:50:13.211Z,9.40
2019-03-09T16:52:42.746Z,9.40
2019-03-09T16:55:12.432Z,9.30
2019-03-09T16:57:41.651Z,9.30
2019-03-09T17:00:14.587Z,9.30
2019-03-09T17:02:49.874Z,9.30
2019-03-09T17:05:19.188Z,9.20
2019-03-09T17:07:48.375Z,9.20
2019-03-09T17:10:19.309Z,9.30
2019-03-09T17:12:49.396Z,9.20
2019-03-09T17:15:18.743Z,9.20
2019-03-09T17:17:48.861Z,9.20
2019-03-09T17:20:18.136Z,9.10
2019-03-09T17:22:48.399Z,9.10
2019-03-09T17:25:18.037Z,9.10
2019-03-09T17:27:47.484Z,9.10
2019-03-09T17:30:17.104Z,9.10
2019-03-09T17:32:47.060Z,9.10
2019-03-09T17:35:16.430Z,9.20
2019-03-09T17:37:46.059Z,9.10
2019-03-09T17:40:15.695Z,9.10
2019-03-09T17:42:45.578Z,9.10
2019-03-09T17:45:17.220Z,9.20
2019-03-09T17:47:47.267Z,9.20
2019-03-09T17:50:16.896Z,9.20
2019-03-09T17:52:46.270Z,9.20
2019-03-09T17:55:15.655Z,9.30
2019-03-09T17:57:44.952Z,9.30
2019-03-09T18:00:17.471Z,9.50
2019-03-09T18:02:47.011Z,9.40
2019-03-09T18:05:19.390Z,9.40
2019-03-09T18:11:21.341Z,9.40
2019-03-09T18:13:51.209Z,9.30
2019-03-09T18:16:21.106Z,9.20
2019-03-09T18:18:50.992Z,9.20
2019-03-09T18:21:20.822Z,9.20
2019-03-09T18:23:51.274Z,9.20
2019-03-09T18:26:20.943Z,9.20
2019-03-09T18:28:50.348Z,9.20
2019-03-09T18:31:20.365Z,9.20
2019-03-09T18:33:49.739Z,9.10
2019-03-09T18:36:19.124Z,9.10
2019-03-09T18:38:48.552Z,9.10
2019-03-09T18:41:18.424Z,9.10
2019-03-09T18:43:48.112Z,9.10
2019-03-09T18:46:18.448Z,9.10
2019-03-09T18:48:47.973Z,9.10
2019-03-09T18:51:17.748Z,9.10
2019-03-09T18:53:46.927Z,9.10
2019-03-09T18:56:16.700Z,9.00
2019-03-09T18:58:45.922Z,9.00
2019-03-09T19:01:15.372Z,9.10
2019-03-09T19:03:46.141Z,9.10
2019-03-09T19:06:15.647Z,9.10
2019-03-09T19:08:45.109Z,9.10
2019-03-09T19:11:14.245Z,9.10
2019-03-09T19:13:43.681Z,9.10
2019-03-09T19:16:13.763Z,9.00
2019-03-09T19:18:43.360Z,9.00
2019-03-09T19:21:13.599Z,9.00
2019-03-09T19:23:43.876Z,8.90
2019-03-09T19:26:13.379Z,8.90
2019-03-09T19:28:42.655Z,9.00
2019-03-09T19:31:12.577Z,8.90
2019-03-09T19:33:42.030Z,8.90
2019-03-09T19:36:11.185Z,8.90
2019-03-09T19:38:40.270Z,8.90
2019-03-09T19:41:09.754Z,8.90
2019-03-09T19:43:39.012Z,8.90
2019-03-09T19:46:09.042Z,8.90
2019-03-09T19:48:38.500Z,8.90
2019-03-09T19:51:07.971Z,8.90
2019-03-09T19:53:38.158Z,8.90
2019-03-09T19:56:08.419Z,8.90
2019-03-09T19:58:37.879Z,8.90
2019-03-09T20:01:08.015Z,8.90
2019-03-09T20:03:37.988Z,8.90
2019-03-09T20:06:07.506Z,8.90
2019-03-09T20:08:37.025Z,8.80
2019-03-09T20:11:06.458Z,8.80
2019-03-09T20:13:36.196Z,8.80
2019-03-09T20:16:05.526Z,8.80
2019-03-09T20:18:34.733Z,8.80
2019-03-09T20:21:04.442Z,8.80
2019-03-09T20:23:34.021Z,8.80
2019-03-09T20:26:03.859Z,8.80
2019-03-09T20:28:33.515Z,8.80
2019-03-09T20:31:03.312Z,8.80
2019-03-09T20:33:32.970Z,8.80
2019-03-09T20:36:02.870Z,8.80
2019-03-09T20:38:32.277Z,8.80
2019-03-09T20:41:02.116Z,8.80
2019-03-09T20:43:32.105Z,8.80
2019-03-09T20:46:01.623Z,8.70
2019-03-09T20:48:31.068Z,8.70
2019-03-09T20:51:01.082Z,8.70
2019-03-09T20:53:30.572Z,8.70
2019-03-09T20:56:00.271Z,8.60
2019-03-09T20:58:29.662Z,8.60
2019-03-09T21:00:59.468Z,8.60
2019-03-09T21:03:29.387Z,8.60
2019-03-09T21:05:59.223Z,8.60
2019-03-09T21:08:28.666Z,8.60
2019-03-09T21:11:03.885Z,8.60
2019-03-09T21:13:30.552Z,8.60
2019-03-09T21:16:00.377Z,8.60
2019-03-09T21:18:29.901Z,8.60
2019-03-09T21:20:59.052Z,8.60
2019-03-09T21:23:28.256Z,8.60
2019-03-09T21:25:57.532Z,8.50
2019-03-09T21:28:26.693Z,8.60
2019-03-09T21:30:56.508Z,8.50
2019-03-09T21:33:26.552Z,8.40
2019-03-09T21:35:55.727Z,8.40
2019-03-09T21:38:25.971Z,8.30
